Time;durP1;ratioP1;P1;durP2;ratioP2;P2;SDS_P1;SDS_P2;PMS_P1;PMS_P2;Temp;Humidity;BMP_temperature;BMP_pressure;BME280_temperature;BME280_humidity;BME280_pressure;Samples;Min_cycle;Max_cycle;Signal;HPM_P1;HPM_P2
2021/09/28 09:38:13;;;;;;;8.52;2.42;;;13.90;99.90;;;;;;5070934;28;20957;-74
2021/09/28 09:40:45;;;;;;;10.93;2.45;;;14.00;99.90;;;;;;5069770;28;20234;-75
2021/09/28 09:43:13;;;;;;;4.10;2.17;;;14.00;99.90;;;;;;5069823;28;20172;-75
2021/09/28 09:45:39;;;;;;;6.63;2.50;;;14.10;99.90;;;;;;5070953;28;20652;-75
2021/09/28 09:48:27;;;;;;;9.15;2.30;;;14.10;99.90;;;;;;5070647;28;20184;-75
2021/09/28 09:51:01;;;;;;;10.13;2.90;;;14.30;99.90;;;;;;5070923;28;20207;-75
2021/09/28 09:53:27;;;;;;;3.30;2.60;;;14.30;99.90;;;;;;5070879;28;20172;-75
2021/09/28 09:55:53;;;;;;;4.88;2.40;;;14.30;99.90;;;;;;5070503;28;20230;-75
2021/09/28 09:58:20;;;;;;;7.50;2.40;;;14.40;99.90;;;;;;5069096;28;20630;-75
2021/09/28 10:00:48;;;;;;;12.30;3.55;;;14.50;99.90;;;;;;5069552;28;20164;-75
2021/09/28 10:03:14;;;;;;;13.30;2.85;;;14.50;99.90;;;;;;5070591;28;20165;-75
2021/09/28 10:05:40;;;;;;;10.05;3.92;;;14.50;99.90;;;;;;5070757;28;20161;-75
2021/09/28 10:08:09;;;;;;;9.02;3.47;;;14.50;99.90;;;;;;5069342;28;20263;-74
2021/09/28 10:10:35;;;;;;;6.07;2.50;;;14.50;99.90;;;;;;5070465;28;20164;-75
2021/09/28 10:13:03;;;;;;;4.00;2.40;;;14.60;99.90;;;;;;5070206;28;20496;-75
2021/09/28 10:15:29;;;;;;;5.10;2.33;;;14.70;99.90;;;;;;5070342;28;20207;-75
2021/09/28 10:17:54;;;;;;;5.05;2.25;;;14.70;99.90;;;;;;5070185;28;20208;-75
2021/09/28 10:20:23;;;;;;;7.10;2.92;;;14.60;99.90;;;;;;5070431;28;20175;-75
2021/09/28 10:22:52;;;;;;;10.68;3.25;;;14.70;99.90;;;;;;5070270;28;20168;-75
2021/09/28 10:25:24;;;;;;;6.35;2.50;;;14.70;99.90;;;;;;5070144;28;20642;-75
2021/09/28 10:28:04;;;;;;;7.65;2.53;;;14.80;99.90;;;;;;5070087;28;20169;-75
2021/09/28 10:33:11;;;;;;;4.80;2.67;;;15.10;99.90;;;;;;5070025;28;20334;-75
2021/09/28 10:36:07;;;;;;;10.32;2.28;;;15.10;99.90;;;;;;5069901;28;20164;-75
2021/09/28 10:38:42;;;;;;;10.45;2.65;;;15.10;99.90;;;;;;5069883;28;20185;-75
2021/09/28 10:41:28;;;;;;;10.75;2.13;;;15.20;99.90;;;;;;5069642;28;20183;-75
2021/09/28 10:43:54;;;;;;;6.03;2.30;;;15.10;99.90;;;;;;5069471;28;20172;-75
2021/09/28 10:46:39;;;;;;;9.02;2.30;;;15.20;99.90;;;;;;5069563;28;20195;-75
2021/09/28 10:49:31;;;;;;;7.13;2.60;;;15.10;99.90;;;;;;5058780;28;20165;-75
2021/09/28 10:52:20;;;;;;;7.22;2.42;;;15.20;99.90;;;;;;5056376;28;20177;-75
2021/09/28 10:55:11;;;;;;;5.28;1.80;;;15.20;99.90;;;;;;5048766;28;20181;-75
2021/09/28 10:58:01;;;;;;;8.10;2.53;;;15.20;99.90;;;;;;5056174;28;20670;-75
2021/09/28 11:00:29;;;;;;;3.45;2.30;;;15.30;99.90;;;;;;5056329;28;20256;-75
2021/09/28 11:02:56;;;;;;;5.55;1.90;;;15.40;99.90;;;;;;5056174;28;20225;-75
2021/09/28 11:05:41;;;;;;;4.35;1.75;;;15.30;99.90;;;;;;5055889;28;20522;-75
2021/09/28 11:08:08;;;;;;;6.43;2.40;;;15.40;99.90;;;;;;5055943;28;20630;-75
2021/09/28 11:10:38;;;;;;;12.35;2.40;;;15.60;99.90;;;;;;5056044;28;20192;-75
2021/09/28 11:13:09;;;;;;;4.97;1.98;;;15.70;99.90;;;;;;5056004;28;20626;-75
2021/09/28 11:15:35;;;;;;;6.22;2.33;;;15.70;99.90;;;;;;5055833;28;20230;-75
2021/09/28 11:18:07;;;;;;;8.15;2.28;;;15.80;99.90;;;;;;5055863;28;20209;-75
2021/09/28 11:20:33;;;;;;;9.32;2.10;;;15.90;99.90;;;;;;5055637;28;20192;-75
2021/09/28 11:23:04;;;;;;;12.93;4.03;;;16.00;99.90;;;;;;5055594;28;20177;-75
2021/09/28 11:25:32;;;;;;;11.63;2.30;;;16.00;99.90;;;;;;5055738;28;20161;-75
2021/09/28 11:28:12;;;;;;;6.95;2.35;;;16.10;99.90;;;;;;5055614;28;20504;-75
2021/09/28 11:30:50;;;;;;;8.60;2.17;;;16.10;99.90;;;;;;5055746;28;20168;-75
2021/09/28 11:33:16;;;;;;;7.20;2.10;;;16.10;99.90;;;;;;5055539;28;20685;-75
2021/09/28 11:35:56;;;;;;;12.55;2.38;;;16.20;99.90;;;;;;5055350;28;20598;-75
2021/09/28 11:38:36;;;;;;;9.68;2.08;;;16.30;99.90;;;;;;5055569;28;20231;-75
2021/09/28 11:41:12;;;;;;;8.57;3.00;;;16.40;99.90;;;;;;5054557;28;20644;-75
2021/09/28 11:43:40;;;;;;;13.23;2.72;;;16.50;99.90;;;;;;5055534;28;20237;-75
2021/09/28 11:46:09;;;;;;;6.78;2.38;;;16.50;99.90;;;;;;5055370;28;20169;-75
2021/09/28 11:48:42;;;;;;;7.47;2.30;;;16.50;99.90;;;;;;5054065;28;20254;-75
2021/09/28 11:51:13;;;;;;;5.68;2.28;;;16.50;99.90;;;;;;5055151;28;20169;-75
2021/09/28 11:53:41;;;;;;;13.15;2.65;;;16.50;99.90;;;;;;5055189;28;20169;-75
2021/09/28 11:56:08;;;;;;;6.47;2.35;;;16.40;99.90;;;;;;5055045;28;20232;-75
2021/09/28 11:58:35;;;;;;;12.00;2.15;;;16.40;99.90;;;;;;5053494;28;20165;-75
2021/09/28 12:01:02;;;;;;;3.88;1.80;;;16.50;99.90;;;;;;5053956;28;20291;-75
2021/09/28 12:03:27;;;;;;;3.75;1.90;;;16.50;99.90;;;;;;5055059;28;20161;-75
2021/09/28 12:08:22;;;;;;;9.70;1.95;;;16.50;99.90;;;;;;5054865;28;20501;-75
2021/09/28 12:10:49;;;;;;;7.57;2.20;;;16.60;99.90;;;;;;5054843;28;20535;-75
2021/09/28 12:13:23;;;;;;;7.68;2.13;;;16.70;99.90;;;;;;5054873;28;20207;-75
2021/09/28 12:16:10;;;;;;;6.32;2.00;;;16.80;99.90;;;;;;5054773;28;20634;-75
2021/09/28 12:18:37;;;;;;;12.23;1.70;;;16.80;99.90;;;;;;5054829;28;20165;-75
2021/09/28 12:21:09;;;;;;;4.82;1.65;;;16.90;99.90;;;;;;5054198;28;20235;-75
2021/09/28 12:23:35;;;;;;;6.15;1.70;;;16.90;99.90;;;;;;5054596;28;20614;-75
2021/09/28 12:26:00;;;;;;;4.28;2.25;;;17.00;99.90;;;;;;5054616;28;20218;-75
2021/09/28 12:28:26;;;;;;;5.57;1.73;;;17.00;99.90;;;;;;5054562;28;20207;-75
2021/09/28 12:30:55;;;;;;;10.80;2.33;;;17.20;99.90;;;;;;5054611;28;20165;-75
2021/09/28 12:33:21;;;;;;;6.28;2.38;;;17.10;99.90;;;;;;5054009;28;20169;-75
2021/09/28 12:35:53;;;;;;;6.93;1.75;;;17.00;99.90;;;;;;5054013;28;20607;-76
2021/09/28 12:38:19;;;;;;;6.05;1.90;;;17.10;99.90;;;;;;5054191;28;20172;-75
2021/09/28 12:40:45;;;;;;;5.47;2.13;;;17.40;99.90;;;;;;5054208;28;20165;-75
2021/09/28 12:43:26;;;;;;;11.15;1.83;;;17.50;99.90;;;;;;5054394;28;20169;-75
2021/09/28 12:45:56;;;;;;;5.28;2.05;;;17.60;99.90;;;;;;5054226;28;20623;-75
2021/09/28 12:48:32;;;;;;;6.68;1.70;;;17.70;99.90;;;;;;5054170;28;20240;-75
2021/09/28 12:51:09;;;;;;;4.43;1.50;;;17.80;99.90;;;;;;5052847;28;20173;-75
2021/09/28 12:53:35;;;;;;;6.82;1.67;;;17.70;99.90;;;;;;5054068;28;20204;-75
2021/09/28 12:56:04;;;;;;;5.85;2.60;;;17.80;99.90;;;;;;5054115;28;20199;-75
2021/09/28 12:58:33;;;;;;;3.47;1.42;;;17.80;99.90;;;;;;5052781;28;20168;-75
2021/09/28 13:00:59;;;;;;;6.82;1.92;;;17.80;99.90;;;;;;5054002;28;20165;-75
2021/09/28 13:03:27;;;;;;;5.80;1.58;;;17.80;99.90;;;;;;5054041;28;20539;-75
2021/09/28 13:05:57;;;;;;;3.70;1.70;;;17.80;99.90;;;;;;5053998;28;20625;-75
2021/09/28 13:08:25;;;;;;;7.18;1.60;;;17.80;99.90;;;;;;5053943;28;20263;-75
2021/09/28 13:10:54;;;;;;;3.25;1.50;;;17.80;99.90;;;;;;5053523;28;20196;-75
2021/09/28 13:13:20;;;;;;;2.95;1.38;;;17.80;99.90;;;;;;5053762;28;20271;-75
2021/09/28 13:15:47;;;;;;;4.88;1.80;;;17.80;99.90;;;;;;5052591;28;20165;-75
2021/09/28 13:18:14;;;;;;;4.22;1.67;;;17.80;99.90;;;;;;5053704;28;20186;-75
2021/09/28 13:20:39;;;;;;;5.45;2.00;;;17.70;99.90;;;;;;5053327;28;20591;-75
2021/09/28 13:23:06;;;;;;;5.40;1.60;;;17.60;99.90;;;;;;5052146;28;20168;-75
2021/09/28 13:25:34;;;;;;;4.28;1.63;;;17.60;99.90;;;;;;5053405;28;20180;-75
2021/09/28 13:28:00;;;;;;;4.90;1.88;;;17.60;99.90;;;;;;5053443;28;20247;-75
2021/09/28 13:30:26;;;;;;;4.20;1.60;;;17.70;99.90;;;;;;5052492;28;20184;-75
2021/09/28 13:32:51;;;;;;;8.93;2.13;;;17.60;99.90;;;;;;5053461;28;20173;-75
2021/09/28 13:35:17;;;;;;;5.88;1.90;;;17.60;99.90;;;;;;5053624;28;20204;-74
2021/09/28 13:37:42;;;;;;;4.50;1.25;;;17.60;99.90;;;;;;5053251;28;20673;-74
2021/09/28 13:40:10;;;;;;;5.55;1.50;;;17.50;99.90;;;;;;5053471;28;20176;-74
2021/09/28 13:42:36;;;;;;;3.90;1.30;;;17.50;99.90;;;;;;5053439;28;20550;-74
2021/09/28 13:45:02;;;;;;;6.07;1.58;;;17.40;99.90;;;;;;5052264;28;20183;-74
2021/09/28 13:47:28;;;;;;;2.40;1.70;;;17.40;99.90;;;;;;5053315;28;20172;-74
2021/09/28 13:49:53;;;;;;;6.95;1.35;;;17.40;99.90;;;;;;5053476;28;20188;-74
2021/09/28 13:52:19;;;;;;;5.22;1.63;;;17.40;99.90;;;;;;5053499;28;20226;-74
2021/09/28 13:54:45;;;;;;;4.45;1.40;;;17.30;99.90;;;;;;5053310;28;20165;-74
2021/09/28 13:57:10;;;;;;;6.35;2.17;;;17.40;99.90;;;;;;5051998;28;20219;-74
2021/09/28 13:59:36;;;;;;;6.00;2.78;;;17.40;99.90;;;;;;5052702;28;20193;-74
2021/09/28 14:02:03;;;;;;;10.50;1.85;;;17.40;99.90;;;;;;5052933;28;20249;-74
2021/09/28 14:04:29;;;;;;;4.70;1.67;;;17.40;99.90;;;;;;5053032;28;20254;-74
2021/09/28 14:06:55;;;;;;;5.45;1.80;;;17.50;99.90;;;;;;5053216;28;20638;-74
2021/09/28 14:09:21;;;;;;;3.75;1.38;;;17.50;99.90;;;;;;5053220;28;20259;-74
2021/09/28 14:11:47;;;;;;;3.58;1.92;;;17.50;99.90;;;;;;5053147;28;20254;-74
2021/09/28 14:14:14;;;;;;;2.65;1.90;;;17.50;99.90;;;;;;5051960;28;20223;-74
2021/09/28 14:16:39;;;;;;;1.73;1.60;;;17.60;99.90;;;;;;5053023;28;20586;-74
2021/09/28 14:19:05;;;;;;;1.40;1.10;;;17.60;99.90;;;;;;5051971;28;20215;-74
2021/09/28 14:21:30;;;;;;;12.50;2.58;;;17.60;99.90;;;;;;5052936;28;20196;-74
2021/09/28 14:23:56;;;;;;;5.60;1.75;;;17.60;99.90;;;;;;5054946;28;20180;-74
2021/09/28 14:26:22;;;;;;;8.90;1.75;;;17.50;99.90;;;;;;5056944;28;20165;-75
2021/09/28 14:28:47;;;;;;;2.80;1.60;;;17.50;99.90;;;;;;5056852;28;20184;-74
2021/09/28 14:31:13;;;;;;;3.25;1.48;;;17.40;99.90;;;;;;5056578;28;20212;-74
2021/09/28 14:33:40;;;;;;;7.05;1.55;;;17.30;99.90;;;;;;5056660;28;20178;-74
2021/09/28 14:36:07;;;;;;;6.75;1.63;;;17.30;99.90;;;;;;5056279;28;20574;-74
2021/09/28 14:38:34;;;;;;;4.22;1.98;;;17.40;99.90;;;;;;5056529;28;20568;-74
2021/09/28 14:41:02;;;;;;;2.50;1.67;;;17.40;99.90;;;;;;5056382;28;20166;-74
2021/09/28 14:43:28;;;;;;;3.80;1.42;;;17.50;99.90;;;;;;5056358;28;20168;-74
2021/09/28 14:45:54;;;;;;;5.22;1.35;;;17.60;99.90;;;;;;5055112;28;20303;-74
2021/09/28 14:48:19;;;;;;;4.82;1.65;;;17.60;99.90;;;;;;5056452;28;20218;-74
2021/09/28 14:50:45;;;;;;;3.85;1.50;;;17.60;99.90;;;;;;5056332;28;20623;-74
2021/09/28 14:53:11;;;;;;;5.97;1.67;;;17.50;99.90;;;;;;5056229;28;20169;-74
2021/09/28 14:55:37;;;;;;;5.47;1.38;;;17.50;99.90;;;;;;5056200;28;20165;-74
2021/09/28 14:58:03;;;;;;;3.63;2.05;;;17.60;99.90;;;;;;5055060;28;20211;-74
2021/09/28 15:00:28;;;;;;;3.08;1.40;;;17.50;99.90;;;;;;5054899;28;20174;-74
2021/09/28 15:02:58;;;;;;;6.07;1.80;;;17.50;99.90;;;;;;5056161;28;20248;-74
2021/09/28 15:05:25;;;;;;;5.43;2.38;;;17.50;99.90;;;;;;5054690;28;20172;-74
2021/09/28 15:07:52;;;;;;;3.30;2.20;;;17.50;99.90;;;;;;5056026;28;20169;-74
2021/09/28 15:10:18;;;;;;;4.93;1.70;;;17.50;99.90;;;;;;5055907;28;20631;-74
2021/09/28 15:12:44;;;;;;;4.63;1.73;;;17.60;99.90;;;;;;5055934;28;20180;-74
2021/09/28 15:15:10;;;;;;;6.10;1.80;;;17.50;99.90;;;;;;5056087;28;20166;-74
2021/09/28 15:17:35;;;;;;;5.47;1.90;;;17.40;99.90;;;;;;5055804;28;20305;-74
2021/09/28 15:20:02;;;;;;;5.07;1.73;;;17.30;99.90;;;;;;5055742;28;20173;-74
2021/09/28 15:22:28;;;;;;;6.72;1.75;;;17.20;99.90;;;;;;5055738;28;20187;-74
2021/09/28 15:24:53;;;;;;;1.85;1.58;;;17.20;99.90;;;;;;5055603;28;20165;-74
2021/09/28 15:27:19;;;;;;;4.38;1.60;;;17.10;99.90;;;;;;5055546;28;20169;-74
2021/09/28 15:29:44;;;;;;;6.60;1.90;;;17.00;99.90;;;;;;5054320;28;20237;-74
2021/09/28 15:32:13;;;;;;;7.13;1.77;;;17.00;99.90;;;;;;5055355;28;20173;-74
2021/09/28 15:34:40;;;;;;;8.57;2.13;;;16.90;99.90;;;;;;5055313;28;20248;-74
2021/09/28 15:37:06;;;;;;;3.00;1.77;;;16.90;99.90;;;;;;5055163;28;20215;-74
2021/09/28 15:39:31;;;;;;;5.15;1.77;;;16.80;99.90;;;;;;5054201;28;20169;-74
2021/09/28 15:41:57;;;;;;;3.08;1.73;;;16.70;99.90;;;;;;5055366;28;20576;-74
2021/09/28 15:44:23;;;;;;;7.43;2.65;;;16.70;99.90;;;;;;5055332;28;20512;-74
2021/09/28 15:46:49;;;;;;;4.72;1.55;;;16.60;99.90;;;;;;5055379;28;20169;-74
2021/09/28 15:49:16;;;;;;;10.55;1.98;;;16.60;99.90;;;;;;5055525;28;20581;-74
2021/09/28 15:51:43;;;;;;;8.30;1.90;;;16.50;99.90;;;;;;5055090;28;20161;-74
2021/09/28 15:54:09;;;;;;;3.20;1.73;;;16.40;99.90;;;;;;5055289;28;20165;-74
2021/09/28 15:56:35;;;;;;;7.38;1.95;;;16.30;99.90;;;;;;5054865;28;20520;-74
2021/09/28 15:59:01;;;;;;;3.13;1.70;;;16.30;99.90;;;;;;5055026;28;20265;-74
2021/09/28 16:01:27;;;;;;;2.00;1.38;;;16.20;99.90;;;;;;5054696;28;20165;-74
2021/09/28 16:03:54;;;;;;;6.18;1.40;;;16.10;99.90;;;;;;5054829;28;20639;-74
2021/09/28 16:06:20;;;;;;;4.03;1.75;;;16.10;99.90;;;;;;5054898;28;20192;-74
2021/09/28 16:08:47;;;;;;;7.53;1.50;;;16.10;99.90;;;;;;5054919;28;20256;-75
2021/09/28 16:11:15;;;;;;;5.47;1.90;;;16.10;99.90;;;;;;5054768;28;20643;-75
2021/09/28 16:13:44;;;;;;;5.30;2.60;;;16.00;99.90;;;;;;5054714;28;20187;-75
2021/09/28 16:16:10;;;;;;;2.78;1.65;;;15.80;99.90;;;;;;5054604;28;20661;-75
2021/09/28 16:18:37;;;;;;;7.05;1.70;;;15.80;99.90;;;;;;5053318;28;20173;-74
2021/09/28 16:21:04;;;;;;;4.35;1.98;;;15.70;99.90;;;;;;5054607;28;20287;-74
2021/09/28 16:23:30;;;;;;;6.28;2.03;;;15.60;99.90;;;;;;5054321;28;20173;-74
2021/09/28 16:25:56;;;;;;;3.58;1.48;;;15.50;99.90;;;;;;5053470;28;20176;-74
2021/09/28 16:28:22;;;;;;;4.65;1.73;;;15.50;99.90;;;;;;5054363;28;20173;-74
2021/09/28 16:30:48;;;;;;;6.38;1.90;;;15.50;99.90;;;;;;5054313;28;20658;-74
2021/09/28 16:33:14;;;;;;;3.72;1.75;;;15.30;99.90;;;;;;5054240;28;20180;-74
2021/09/28 16:35:39;;;;;;;3.10;1.83;;;15.20;99.90;;;;;;5054436;28;20166;-74
2021/09/28 16:38:07;;;;;;;5.80;2.65;;;15.10;99.90;;;;;;5054034;28;20228;-74
2021/09/28 16:40:34;;;;;;;6.75;2.10;;;15.00;99.90;;;;;;5054262;28;20157;-74
2021/09/28 16:43:00;;;;;;;5.45;2.10;;;15.00;99.90;;;;;;5054248;28;20203;-74
2021/09/28 16:45:26;;;;;;;4.13;2.05;;;14.90;99.90;;;;;;5053682;28;20193;-74
2021/09/28 16:47:52;;;;;;;4.80;1.70;;;14.80;99.90;;;;;;5053879;28;20511;-74
2021/09/28 16:50:17;;;;;;;4.32;2.00;;;14.80;99.90;;;;;;5054128;28;20619;-74
2021/09/28 16:52:43;;;;;;;6.35;1.85;;;14.70;99.90;;;;;;5053980;28;20560;-74
2021/09/28 16:55:09;;;;;;;9.60;2.15;;;14.70;99.90;;;;;;5052625;28;20177;-74
2021/09/28 16:57:35;;;;;;;4.97;2.05;;;14.50;99.90;;;;;;5053712;28;20211;-74
2021/09/28 17:00:03;;;;;;;9.60;2.50;;;14.40;99.90;;;;;;5053761;28;20177;-74
2021/09/28 17:02:29;;;;;;;8.48;2.10;;;14.40;99.90;;;;;;5053710;28;20252;-74
2021/09/28 17:04:55;;;;;;;5.15;2.72;;;14.30;99.90;;;;;;5053615;28;20247;-74
2021/09/28 17:07:20;;;;;;;2.30;1.95;;;14.20;99.90;;;;;;5053872;28;20177;-74
2021/09/28 17:09:48;;;;;;;13.13;2.00;;;14.00;99.90;;;;;;5053859;28;20520;-74
2021/09/28 17:12:14;;;;;;;9.20;3.78;;;14.10;99.90;;;;;;5054044;28;20176;-74
2021/09/28 17:14:40;;;;;;;2.47;2.20;;;14.00;99.90;;;;;;5053765;28;20181;-74
